Adams, Tennessee
Current Conditions -  °F | °C
As of 10:15 AM on Thursday 27 Nov 2014 (Local Time) from KM91 Reporting Station
Overcast Overcast  
Wind Chill: 27°   Ceiling: 2100
Heat Index: 36°   Visibility: 10mi
Dew Point: 28°   Wind: 14mph
Humidity: 75%   Direction: 320°NW
Pressure: 30.4"   Gusts: NA
Location:  36.58°N, 87.07°W
Report Text: KM91 271615Z AUTO 32012KT 10SM BKN021 OVC027 02/M02 A3040 RMK
Loading
Personal Weather Stations






























Interactive Weather Map New forecast layout! Learn more

10-Day Weather Forecast

Advertisements
Track Severe Weather on mobile